createdAt,value
2018-09-13T00:00:39.380Z,11.30
2018-09-13T00:03:13.846Z,10.93
2018-09-13T00:05:48.390Z,11.00
2018-09-13T00:08:23.114Z,12.03
2018-09-13T00:10:57.653Z,12.57
2018-09-13T00:13:32.323Z,10.97
2018-09-13T00:16:06.757Z,11.73
2018-09-13T00:18:41.403Z,11.13
2018-09-13T00:21:16.339Z,11.80
2018-09-13T00:23:50.838Z,11.50
2018-09-13T00:26:25.677Z,12.03
2018-09-13T00:29:00.106Z,11.87
2018-09-13T00:31:34.806Z,12.00
2018-09-13T00:34:09.342Z,11.87
2018-09-13T00:36:43.906Z,12.80
2018-09-13T00:39:18.568Z,12.20
2018-09-13T00:41:53.006Z,11.63
2018-09-13T00:44:27.458Z,12.60
2018-09-13T00:47:02.078Z,10.57
2018-09-13T00:49:36.666Z,11.03
2018-09-13T00:52:11.109Z,11.93
2018-09-13T00:54:46.242Z,11.10
2018-09-13T00:57:20.798Z,11.37
2018-09-13T00:59:56.563Z,11.00
2018-09-13T01:02:31.172Z,12.87
2018-09-13T01:05:05.972Z,11.33
2018-09-13T01:07:40.675Z,12.40
2018-09-13T01:10:15.145Z,12.17
2018-09-13T01:12:50.335Z,11.73
2018-09-13T01:15:24.810Z,11.80
2018-09-13T01:17:59.413Z,11.47
2018-09-13T01:20:34.354Z,12.33
2018-09-13T01:23:08.846Z,11.97
2018-09-13T01:25:43.509Z,12.73
2018-09-13T01:28:17.963Z,13.10
2018-09-13T01:30:52.414Z,12.33
2018-09-13T01:33:27.067Z,12.97
2018-09-13T01:36:01.543Z,12.00
2018-09-13T01:38:36.373Z,12.70
2018-09-13T01:41:10.806Z,11.83
2018-09-13T01:43:45.377Z,11.77
2018-09-13T01:46:19.994Z,12.83
2018-09-13T01:48:54.546Z,11.97
2018-09-13T01:51:29.182Z,12.10
2018-09-13T01:54:03.717Z,11.87
2018-09-13T01:56:38.479Z,12.00
2018-09-13T01:59:12.898Z,11.07
2018-09-13T02:01:47.786Z,12.30
2018-09-13T02:04:22.259Z,11.60
2018-09-13T02:06:56.779Z,12.00
2018-09-13T02:09:31.380Z,12.37
2018-09-13T02:12:06.057Z,12.00
2018-09-13T02:14:40.615Z,11.70
2018-09-13T02:17:15.106Z,12.20
2018-09-13T02:19:49.811Z,12.03
2018-09-13T02:22:24.454Z,12.60
2018-09-13T02:24:59.090Z,12.37
2018-09-13T02:27:33.645Z,12.10
2018-09-13T02:30:08.361Z,12.87
2018-09-13T02:32:42.951Z,12.97
2018-09-13T02:35:17.607Z,11.60
2018-09-13T02:37:52.206Z,12.00
2018-09-13T02:40:26.864Z,13.40
2018-09-13T02:43:01.306Z,12.97
2018-09-13T02:45:36.000Z,12.20
2018-09-13T02:48:10.578Z,12.60
2018-09-13T02:50:45.175Z,12.00
2018-09-13T02:53:19.959Z,13.27
2018-09-13T02:55:54.738Z,12.60
2018-09-13T02:58:29.310Z,13.47
2018-09-13T03:01:03.768Z,13.13
2018-09-13T03:03:38.350Z,12.43
2018-09-13T03:06:13.104Z,12.57
2018-09-13T03:08:47.720Z,11.40
2018-09-13T03:11:22.187Z,11.73
2018-09-13T03:13:56.735Z,11.40
2018-09-13T03:16:31.515Z,10.97
2018-09-13T03:19:05.990Z,11.37
2018-09-13T03:21:40.452Z,11.30
2018-09-13T03:24:14.906Z,11.63
2018-09-13T03:26:49.618Z,11.97
2018-09-13T03:29:24.135Z,13.00
2018-09-13T03:31:53.175Z,13.70
2018-09-13T03:34:22.151Z,13.20
2018-09-13T03:36:51.145Z,12.73
2018-09-13T03:39:20.178Z,12.40
2018-09-13T03:41:49.224Z,13.20
2018-09-13T03:44:18.194Z,12.77
2018-09-13T03:46:47.215Z,13.13
2018-09-13T03:49:16.277Z,12.50
2018-09-13T03:51:45.310Z,12.13
2018-09-13T03:54:14.315Z,13.00
2018-09-13T03:56:43.391Z,13.87
2018-09-13T03:59:12.430Z,13.53
2018-09-13T04:01:41.544Z,13.27
2018-09-13T04:04:10.624Z,12.27
2018-09-13T04:06:39.682Z,13.60
2018-09-13T04:09:10.671Z,13.30
2018-09-13T04:11:39.860Z,12.40
2018-09-13T04:14:08.963Z,13.07
2018-09-13T04:16:38.011Z,12.00
2018-09-13T04:19:07.049Z,12.70
2018-09-13T04:21:36.251Z,13.20
2018-09-13T04:24:05.501Z,12.87
2018-09-13T04:26:34.543Z,13.33
2018-09-13T04:29:03.595Z,13.00
2018-09-13T04:31:32.616Z,11.33
2018-09-13T04:34:01.682Z,12.57
2018-09-13T04:36:30.680Z,13.13
2018-09-13T04:38:59.691Z,12.20
2018-09-13T04:41:28.761Z,11.77
2018-09-13T04:43:57.782Z,12.07
2018-09-13T04:46:26.797Z,12.40
2018-09-13T04:48:55.847Z,12.67
2018-09-13T04:51:24.919Z,12.00
2018-09-13T04:53:53.987Z,11.00
2018-09-13T04:56:22.986Z,12.30
2018-09-13T04:58:52.027Z,12.50
2018-09-13T05:01:21.079Z,12.27
2018-09-13T05:03:50.070Z,12.10
2018-09-13T05:06:19.228Z,12.13
2018-09-13T05:08:48.266Z,13.17
2018-09-13T05:11:17.250Z,12.70
2018-09-13T05:13:46.421Z,13.43
2018-09-13T05:16:15.440Z,13.10
2018-09-13T05:18:44.479Z,12.63
2018-09-13T05:21:13.478Z,13.03
2018-09-13T05:23:42.613Z,14.27
2018-09-13T05:26:11.621Z,12.63
2018-09-13T05:28:40.732Z,13.00
2018-09-13T05:31:09.787Z,12.00
2018-09-13T05:33:38.871Z,13.83
2018-09-13T05:36:07.994Z,13.17
2018-09-13T05:38:37.132Z,12.33
2018-09-13T05:41:06.160Z,12.60
2018-09-13T05:43:35.210Z,12.40
2018-09-13T05:46:04.288Z,13.40
2018-09-13T05:48:33.322Z,12.53
2018-09-13T05:51:02.423Z,13.77
2018-09-13T05:53:31.462Z,13.80
2018-09-13T05:56:00.826Z,13.27
2018-09-13T05:58:29.838Z,13.90
2018-09-13T06:00:58.935Z,13.07
2018-09-13T06:03:28.251Z,14.30
2018-09-13T06:05:57.267Z,15.13
2018-09-13T06:08:26.262Z,13.20
2018-09-13T06:10:55.348Z,15.50
2018-09-13T06:13:24.366Z,15.33
2018-09-13T06:15:53.599Z,12.47
2018-09-13T06:18:22.995Z,12.90
2018-09-13T06:20:52.026Z,13.77
2018-09-13T06:23:21.109Z,11.70
2018-09-13T06:25:50.124Z,11.40
2018-09-13T06:28:19.207Z,11.23
2018-09-13T06:30:48.213Z,12.20
2018-09-13T06:33:17.270Z,13.00
2018-09-13T06:35:46.274Z,11.97
2018-09-13T06:38:15.409Z,11.83
2018-09-13T06:40:44.606Z,13.43
2018-09-13T06:43:13.795Z,13.70
2018-09-13T06:45:42.855Z,12.97
2018-09-13T06:48:11.966Z,13.33
2018-09-13T06:50:40.981Z,12.47
2018-09-13T06:53:10.135Z,11.60
2018-09-13T06:55:39.164Z,12.10
2018-09-13T06:58:08.232Z,11.00
2018-09-13T07:00:37.555Z,11.47
2018-09-13T07:03:06.599Z,11.47
2018-09-13T07:05:35.610Z,11.50
2018-09-13T07:08:04.691Z,12.00
2018-09-13T07:10:33.886Z,10.97
2018-09-13T07:13:02.935Z,11.23
2018-09-13T07:15:31.981Z,12.83
2018-09-13T07:18:00.970Z,12.00
2018-09-13T07:20:30.194Z,12.27
2018-09-13T07:22:59.195Z,11.70
2018-09-13T07:25:28.248Z,11.13
2018-09-13T07:27:57.274Z,11.67
2018-09-13T07:30:26.322Z,11.47
2018-09-13T07:32:55.392Z,11.30
2018-09-13T07:35:24.439Z,10.30
2018-09-13T07:37:53.727Z,9.87
2018-09-13T07:40:22.973Z,10.63
2018-09-13T07:42:52.184Z,10.47
2018-09-13T07:45:21.169Z,10.00
2018-09-13T07:47:50.475Z,11.10
2018-09-13T07:50:19.511Z,10.70
2018-09-13T07:52:48.699Z,10.73
2018-09-13T07:55:17.777Z,11.17
2018-09-13T07:57:46.835Z,9.60
2018-09-13T08:00:15.935Z,10.50
2018-09-13T08:02:44.922Z,12.50
2018-09-13T08:05:14.034Z,12.33
2018-09-13T08:07:43.061Z,13.40
2018-09-13T08:10:12.130Z,12.57
2018-09-13T08:12:41.183Z,12.93
2018-09-13T08:15:10.193Z,12.27
2018-09-13T08:17:39.462Z,12.63
2018-09-13T08:20:08.520Z,12.43
2018-09-13T08:22:37.546Z,12.13
2018-09-13T08:25:06.618Z,11.00
2018-09-13T08:27:35.693Z,12.57
2018-09-13T08:30:04.788Z,11.33
2018-09-13T08:32:33.804Z,10.97
2018-09-13T08:35:02.967Z,11.57
2018-09-13T08:37:31.928Z,11.03
2018-09-13T08:40:01.818Z,11.90
2018-09-13T08:42:30.827Z,12.30
2018-09-13T08:44:59.891Z,10.90
2018-09-13T08:47:28.906Z,10.30
2018-09-13T08:49:57.939Z,13.87
2018-09-13T08:52:27.048Z,11.70
2018-09-13T08:54:56.106Z,9.83
2018-09-13T08:57:25.172Z,11.70
2018-09-13T08:59:54.306Z,10.80
2018-09-13T09:02:23.391Z,11.50
2018-09-13T09:04:52.496Z,11.90
2018-09-13T09:07:21.537Z,11.10
2018-09-13T09:09:50.553Z,11.73
2018-09-13T09:12:19.597Z,10.70
2018-09-13T09:14:48.630Z,11.90
2018-09-13T09:17:17.675Z,10.63
2018-09-13T09:19:46.674Z,10.93
2018-09-13T09:22:16.031Z,10.20
2018-09-13T09:24:45.063Z,10.73
2018-09-13T09:27:14.062Z,11.27
2018-09-13T09:29:43.144Z,10.00
2018-09-13T09:32:12.145Z,8.93
2018-09-13T09:34:41.495Z,16.23
2018-09-13T09:37:10.553Z,8.90
2018-09-13T09:39:39.569Z,7.97
2018-09-13T09:42:08.647Z,7.70
2018-09-13T09:44:37.676Z,8.83
2018-09-13T09:47:06.982Z,9.10
2018-09-13T09:49:36.034Z,7.17
2018-09-13T09:52:05.786Z,9.07
2018-09-13T09:54:34.824Z,8.90
2018-09-13T09:57:03.871Z,8.70
2018-09-13T09:59:32.848Z,7.00
2018-09-13T10:02:07.039Z,7.80
2018-09-13T10:04:36.097Z,8.20
2018-09-13T10:07:05.126Z,8.60
2018-09-13T10:09:34.776Z,8.67
2018-09-13T10:12:03.867Z,9.70
2018-09-13T10:14:32.863Z,8.87
2018-09-13T10:17:07.282Z,9.00
2018-09-13T10:19:41.703Z,10.40
2018-09-13T10:22:16.462Z,9.13
2018-09-13T10:24:50.733Z,8.63
2018-09-13T10:27:25.171Z,9.10
2018-09-13T10:29:59.418Z,9.10
2018-09-13T10:32:33.719Z,8.60
2018-09-13T10:35:08.107Z,9.03
2018-09-13T10:37:42.407Z,8.93
2018-09-13T10:40:17.003Z,8.80
2018-09-13T10:42:51.406Z,9.37
2018-09-13T10:45:26.083Z,9.07
2018-09-13T10:48:00.448Z,7.60
2018-09-13T10:50:33.458Z,8.63
2018-09-13T10:53:07.502Z,8.60
2018-09-13T10:55:36.619Z,9.10
2018-09-13T10:58:05.667Z,9.37
2018-09-13T11:00:35.005Z,7.83
2018-09-13T11:03:04.063Z,8.53
2018-09-13T11:05:33.066Z,10.27
2018-09-13T11:08:02.547Z,8.73
2018-09-13T11:10:31.810Z,9.37
2018-09-13T11:15:08.366Z,9.80
2018-09-13T11:17:37.666Z,10.30
2018-09-13T11:20:06.919Z,9.63
2018-09-13T11:22:35.998Z,9.60
2018-09-13T11:25:05.086Z,9.10
2018-09-13T11:27:34.156Z,8.97
2018-09-13T11:30:03.432Z,9.87
2018-09-13T11:32:32.645Z,8.57
2018-09-13T11:35:01.593Z,8.40
2018-09-13T11:37:30.702Z,8.20
2018-09-13T11:40:00.221Z,8.27
2018-09-13T11:42:29.114Z,8.53
2018-09-13T11:44:58.175Z,8.97
2018-09-13T11:47:27.374Z,8.20
2018-09-13T11:49:56.390Z,7.93
2018-09-13T11:52:25.422Z,8.37
2018-09-13T11:54:54.434Z,8.30
2018-09-13T11:57:23.540Z,8.30
2018-09-13T11:59:52.741Z,8.60
2018-09-13T12:02:21.756Z,8.20
2018-09-13T12:04:50.973Z,7.40
2018-09-13T12:07:20.088Z,8.53
2018-09-13T12:09:49.126Z,7.10
2018-09-13T12:12:18.188Z,7.43
2018-09-13T12:14:47.221Z,9.30
2018-09-13T12:17:16.435Z,8.53
2018-09-13T12:19:45.742Z,8.87
2018-09-13T12:22:14.887Z,8.73
2018-09-13T12:24:43.887Z,8.90
2018-09-13T12:27:12.900Z,8.90
2018-09-13T12:29:42.071Z,8.80
2018-09-13T12:32:17.797Z,8.17
2018-09-13T12:34:47.129Z,7.53
2018-09-13T12:37:16.202Z,8.23
2018-09-13T12:39:45.226Z,8.40
2018-09-13T12:42:14.339Z,7.53
2018-09-13T12:44:43.347Z,7.70
2018-09-13T12:47:12.399Z,8.50
2018-09-13T12:49:41.613Z,8.23
2018-09-13T12:52:10.740Z,8.60
2018-09-13T12:54:39.758Z,8.20
2018-09-13T12:57:08.798Z,7.23
2018-09-13T12:59:37.888Z,8.37
2018-09-13T13:02:06.994Z,7.53
2018-09-13T13:04:36.023Z,7.57
2018-09-13T13:07:05.739Z,7.30
2018-09-13T13:09:34.844Z,6.97
2018-09-13T13:12:04.951Z,8.17
2018-09-13T13:14:34.019Z,7.20
2018-09-13T13:17:03.171Z,7.10
2018-09-13T13:19:33.214Z,7.67
2018-09-13T13:22:02.217Z,7.30
2018-09-13T13:24:31.285Z,7.77
2018-09-13T13:27:00.624Z,8.40
2018-09-13T13:29:29.672Z,7.70
2018-09-13T13:31:58.736Z,7.50
2018-09-13T13:34:27.841Z,9.10
2018-09-13T13:36:56.890Z,8.57
2018-09-13T13:39:25.952Z,10.07
2018-09-13T13:41:55.110Z,10.00
2018-09-13T13:44:24.103Z,10.17
2018-09-13T13:46:53.123Z,10.63
2018-09-13T13:49:22.254Z,9.27
2018-09-13T13:51:51.338Z,9.67
2018-09-13T13:54:20.394Z,10.00
2018-09-13T13:56:49.491Z,9.27
2018-09-13T13:59:18.660Z,8.73
2018-09-13T14:01:47.772Z,8.57
2018-09-13T14:04:16.867Z,9.17
2018-09-13T14:06:45.893Z,7.53
2018-09-13T14:09:14.942Z,8.13
2018-09-13T14:11:44.036Z,8.17
2018-09-13T14:14:13.074Z,8.10
2018-09-13T14:16:42.110Z,6.70
2018-09-13T14:19:11.209Z,8.50
2018-09-13T14:21:40.258Z,9.00
2018-09-13T14:24:09.407Z,8.90
2018-09-13T14:26:38.534Z,10.60
2018-09-13T14:29:08.465Z,10.53
2018-09-13T14:31:37.463Z,10.60
2018-09-13T14:34:06.584Z,11.17
2018-09-13T14:36:35.644Z,11.57
2018-09-13T14:39:07.054Z,12.20
2018-09-13T14:41:36.141Z,11.10
2018-09-13T14:44:05.567Z,11.90
2018-09-13T14:46:35.330Z,12.43
2018-09-13T14:49:04.662Z,11.93
2018-09-13T14:51:34.037Z,13.70
2018-09-13T14:54:03.222Z,13.47
2018-09-13T14:56:32.362Z,12.47
2018-09-13T14:59:01.486Z,13.03
2018-09-13T15:01:30.535Z,11.07
2018-09-13T15:03:59.942Z,12.00
2018-09-13T15:06:29.006Z,10.97
2018-09-13T15:08:58.208Z,11.33
2018-09-13T15:11:27.506Z,12.00
2018-09-13T15:13:56.575Z,15.37
2018-09-13T15:16:26.034Z,10.80
2018-09-13T15:18:55.101Z,9.90
2018-09-13T15:21:24.217Z,9.73
2018-09-13T15:23:53.601Z,10.17
2018-09-13T15:26:22.695Z,12.03
2018-09-13T15:28:51.879Z,9.27
2018-09-13T15:31:21.637Z,10.63
2018-09-13T15:33:50.737Z,10.17
2018-09-13T15:36:19.972Z,12.10
2018-09-13T15:38:49.180Z,10.70
2018-09-13T15:41:18.142Z,10.63
2018-09-13T15:43:47.419Z,10.90
2018-09-13T15:46:16.523Z,10.60
2018-09-13T15:48:45.542Z,11.30
2018-09-13T15:51:14.672Z,11.10
2018-09-13T15:53:43.850Z,12.13
2018-09-13T15:56:13.275Z,11.50
2018-09-13T15:58:42.468Z,10.50
2018-09-13T16:01:11.624Z,10.17
2018-09-13T16:03:40.703Z,10.40
2018-09-13T16:06:09.961Z,9.97
2018-09-13T16:08:39.010Z,12.23
2018-09-13T16:11:08.055Z,9.40
2018-09-13T16:13:37.200Z,12.87
2018-09-13T16:16:06.523Z,9.43
2018-09-13T16:18:35.604Z,7.23
2018-09-13T16:21:04.682Z,7.80
2018-09-13T16:23:34.000Z,7.27
2018-09-13T16:26:03.109Z,7.33
2018-09-13T16:28:32.428Z,6.93
2018-09-13T16:31:01.491Z,9.40
2018-09-13T16:33:30.645Z,6.80
2018-09-13T16:36:00.995Z,7.60
2018-09-13T16:38:35.380Z,6.67
2018-09-13T16:41:09.832Z,9.00
2018-09-13T16:43:44.293Z,9.60
2018-09-13T16:46:18.977Z,14.07
2018-09-13T16:48:47.947Z,8.83
2018-09-13T16:51:17.132Z,10.10
2018-09-13T16:53:46.171Z,11.27
2018-09-13T16:56:15.170Z,8.90
2018-09-13T16:58:44.230Z,8.73
2018-09-13T17:01:13.411Z,7.73
2018-09-13T17:03:42.471Z,8.77
2018-09-13T17:06:11.567Z,10.20
2018-09-13T17:08:40.684Z,9.60
2018-09-13T17:11:09.699Z,9.03
2018-09-13T17:13:39.069Z,8.30
2018-09-13T17:16:08.089Z,10.17
2018-09-13T17:18:37.128Z,10.70
2018-09-13T17:21:06.384Z,10.50
2018-09-13T17:23:35.675Z,9.97
2018-09-13T17:26:04.793Z,9.73
2018-09-13T17:28:33.798Z,13.23
2018-09-13T17:31:02.907Z,10.80
2018-09-13T17:33:31.956Z,11.57
2018-09-13T17:36:00.960Z,11.90
2018-09-13T17:38:30.020Z,11.63
2018-09-13T17:40:59.727Z,11.30
2018-09-13T17:43:28.758Z,11.60
2018-09-13T17:45:57.831Z,11.10
2018-09-13T17:48:26.853Z,13.13
2018-09-13T17:50:56.048Z,12.93
2018-09-13T17:53:25.071Z,13.10
2018-09-13T17:55:54.096Z,13.07
2018-09-13T17:58:23.260Z,12.40
2018-09-13T18:00:52.255Z,12.80
2018-09-13T18:03:21.364Z,13.87
2018-09-13T18:05:51.462Z,11.23
2018-09-13T18:08:20.487Z,13.47
2018-09-13T18:10:49.523Z,12.00
2018-09-13T18:13:19.209Z,11.83
2018-09-13T18:15:48.291Z,11.50
2018-09-13T18:18:17.363Z,14.80
2018-09-13T18:20:46.495Z,13.63
2018-09-13T18:23:15.496Z,11.07
2018-09-13T18:25:44.595Z,10.80
2018-09-13T18:28:13.653Z,11.67
2018-09-13T18:30:42.987Z,10.30
2018-09-13T18:33:11.986Z,11.50
2018-09-13T18:35:40.988Z,12.80
2018-09-13T18:38:10.038Z,12.40
2018-09-13T18:40:39.026Z,12.20
2018-09-13T18:43:08.067Z,11.37
2018-09-13T18:45:37.106Z,13.10
2018-09-13T18:48:06.151Z,13.37
2018-09-13T18:50:35.655Z,13.90
2018-09-13T18:53:04.702Z,16.23
2018-09-13T18:55:33.770Z,13.57
2018-09-13T18:58:02.835Z,14.53
2018-09-13T19:00:31.860Z,14.03
2018-09-13T19:03:00.875Z,15.13
2018-09-13T19:05:30.131Z,15.17
2018-09-13T19:07:59.986Z,14.57
2018-09-13T19:10:29.777Z,14.60
2018-09-13T19:12:58.833Z,14.80
2018-09-13T19:15:27.955Z,14.80
2018-09-13T19:17:57.012Z,14.90
2018-09-13T19:20:26.023Z,15.00
2018-09-13T19:22:55.066Z,14.43
2018-09-13T19:25:24.285Z,14.50
2018-09-13T19:27:53.339Z,16.40
2018-09-13T19:30:22.516Z,15.20
2018-09-13T19:32:52.137Z,16.30
2018-09-13T19:35:21.302Z,15.30
2018-09-13T19:37:50.656Z,16.23
2018-09-13T19:40:19.754Z,13.30
2018-09-13T19:42:50.281Z,14.67
2018-09-13T19:45:19.687Z,13.40
2018-09-13T19:47:48.750Z,10.90
2018-09-13T19:50:17.879Z,10.60
2018-09-13T19:52:46.933Z,14.63
2018-09-13T19:55:16.083Z,18.00
2018-09-13T19:57:45.208Z,20.80
2018-09-13T20:00:14.286Z,23.97
2018-09-13T20:02:43.348Z,29.10
2018-09-13T20:05:12.468Z,21.90
2018-09-13T20:07:41.565Z,25.20
2018-09-13T20:10:11.387Z,23.87
2018-09-13T20:12:40.531Z,24.07
2018-09-13T20:15:09.654Z,23.50
2018-09-13T20:17:38.712Z,20.33
2018-09-13T20:20:07.907Z,20.00
2018-09-13T20:22:37.088Z,18.17
2018-09-13T20:25:06.223Z,19.17
2018-09-13T20:27:35.496Z,20.07
2018-09-13T20:30:05.023Z,19.27
2018-09-13T20:32:34.233Z,17.90
2018-09-13T20:35:03.252Z,18.90
2018-09-13T20:37:32.439Z,18.97
2018-09-13T20:40:01.547Z,18.10
2018-09-13T20:42:30.743Z,19.90
2018-09-13T20:44:59.851Z,16.53
2018-09-13T20:47:28.996Z,16.93
2018-09-13T20:49:58.072Z,15.00
2018-09-13T20:52:27.283Z,14.50
2018-09-13T20:54:56.501Z,15.30
2018-09-13T20:57:25.679Z,16.10
2018-09-13T20:59:54.787Z,16.97
2018-09-13T21:02:24.125Z,17.70
2018-09-13T21:04:53.251Z,15.93
2018-09-13T21:07:22.432Z,14.33
2018-09-13T21:09:51.545Z,15.40
2018-09-13T21:12:20.546Z,17.47
2018-09-13T21:14:50.194Z,15.43
2018-09-13T21:17:19.202Z,14.97
2018-09-13T21:19:48.248Z,14.20
2018-09-13T21:22:17.279Z,14.20
2018-09-13T21:24:46.296Z,14.83
2018-09-13T21:27:15.323Z,13.70
2018-09-13T21:29:50.186Z,15.00
2018-09-13T21:32:25.173Z,15.10
2018-09-13T21:34:59.770Z,15.40
2018-09-13T21:37:34.381Z,16.17
2018-09-13T21:40:08.925Z,16.33
2018-09-13T21:42:43.513Z,16.07
2018-09-13T21:45:18.483Z,16.40
2018-09-13T21:47:52.932Z,16.80
2018-09-13T21:50:27.606Z,16.30
2018-09-13T21:53:02.130Z,15.77
2018-09-13T21:55:36.878Z,16.13
2018-09-13T21:58:11.591Z,16.43
2018-09-13T22:00:46.247Z,16.47
2018-09-13T22:03:20.954Z,17.77
2018-09-13T22:05:55.572Z,18.83
2018-09-13T22:08:30.119Z,17.27
2018-09-13T22:11:04.817Z,15.00
2018-09-13T22:13:39.393Z,17.80
2018-09-13T22:16:14.135Z,18.03
2018-09-13T22:18:48.619Z,15.60
2018-09-13T22:21:23.343Z,17.20
2018-09-13T22:23:58.003Z,18.67
2018-09-13T22:26:33.138Z,16.70
2018-09-13T22:29:07.831Z,16.50
2018-09-13T22:31:42.323Z,17.17
2018-09-13T22:34:16.978Z,15.40
2018-09-13T22:36:51.494Z,17.53
2018-09-13T22:39:26.075Z,16.47
2018-09-13T22:42:00.542Z,17.20
2018-09-13T22:44:39.120Z,17.53
2018-09-13T22:47:13.810Z,15.90
2018-09-13T22:49:48.547Z,14.43
2018-09-13T22:52:23.145Z,16.90
2018-09-13T22:54:57.698Z,17.27
2018-09-13T22:57:32.322Z,14.57
2018-09-13T23:00:07.024Z,15.13
2018-09-13T23:02:47.680Z,15.07
2018-09-13T23:05:22.645Z,13.17
2018-09-13T23:07:57.298Z,14.77
2018-09-13T23:10:32.026Z,15.53
2018-09-13T23:13:06.489Z,17.07
2018-09-13T23:15:41.146Z,15.30
2018-09-13T23:18:15.740Z,15.63
2018-09-13T23:20:50.538Z,16.93
2018-09-13T23:23:25.214Z,14.90
2018-09-13T23:25:59.786Z,16.10
2018-09-13T23:28:34.382Z,16.37
2018-09-13T23:31:08.905Z,16.50
2018-09-13T23:33:43.483Z,17.97
2018-09-13T23:36:18.211Z,18.17
2018-09-13T23:38:52.692Z,17.87
2018-09-13T23:41:27.150Z,20.03
2018-09-13T23:44:01.645Z,19.40
2018-09-13T23:46:36.398Z,17.47
2018-09-13T23:49:11.179Z,17.47
2018-09-13T23:51:45.623Z,15.10
2018-09-13T23:54:20.602Z,16.30
2018-09-13T23:56:55.177Z,16.53
2018-09-13T23:59:29.946Z,18.80
